Time;durP1;ratioP1;P1;durP2;ratioP2;P2;SDS_P1;SDS_P2;PMS_P1;PMS_P2;Temp;Humidity;BMP_temperature;BMP_pressure;BME280_temperature;BME280_humidity;BME280_pressure;Samples;Min_cycle;Max_cycle;Signal;HPM_P1;HPM_P2
2023/05/04 00:02:21;;;;;;;7.63;4.07;;;6.50;99.90;;;;;;5050563;28;20128;-66
2023/05/04 00:04:47;;;;;;;9.93;4.88;;;6.50;99.90;;;;;;5050037;28;20029;-65
2023/05/04 00:07:12;;;;;;;11.57;4.63;;;6.40;99.90;;;;;;5052371;28;20041;-66
2023/05/04 00:09:38;;;;;;;10.48;5.15;;;6.40;99.90;;;;;;5050437;28;20043;-65
2023/05/04 00:12:05;;;;;;;9.25;5.45;;;6.40;99.90;;;;;;5049880;28;20057;-66
2023/05/04 00:14:31;;;;;;;11.63;4.90;;;6.40;99.90;;;;;;5050015;28;20045;-65
2023/05/04 00:16:56;;;;;;;12.52;4.97;;;6.40;99.90;;;;;;5050925;28;20048;-65
2023/05/04 00:19:22;;;;;;;10.30;5.20;;;6.40;99.90;;;;;;5050280;28;20076;-65
2023/05/04 00:21:48;;;;;;;9.23;4.03;;;6.40;99.90;;;;;;5050536;28;20052;-66
2023/05/04 00:24:13;;;;;;;11.23;5.25;;;6.40;99.90;;;;;;5050933;28;20040;-66
2023/05/04 00:26:39;;;;;;;10.15;4.53;;;6.30;99.90;;;;;;5050528;28;20045;-66
2023/05/04 00:29:05;;;;;;;8.93;4.32;;;6.30;99.90;;;;;;5034085;28;20079;-65
2023/05/04 00:31:30;;;;;;;8.98;4.85;;;6.30;99.90;;;;;;5051309;28;20052;-66
2023/05/04 00:33:56;;;;;;;9.80;4.00;;;6.30;99.90;;;;;;5049873;28;20072;-66
2023/05/04 00:36:22;;;;;;;14.35;4.57;;;6.30;99.90;;;;;;5050287;28;20041;-66
2023/05/04 00:38:53;;;;;;;10.23;5.00;;;6.30;99.90;;;;;;5053067;28;20401;-66
2023/05/04 00:41:20;;;;;;;11.20;4.88;;;6.30;99.90;;;;;;5054900;28;20044;-66
2023/05/04 00:43:47;;;;;;;12.90;5.47;;;6.30;99.90;;;;;;5054749;28;20462;-66
2023/05/04 00:46:13;;;;;;;9.20;4.90;;;6.30;99.90;;;;;;5054572;28;20120;-66
2023/05/04 00:48:40;;;;;;;18.00;6.43;;;6.30;99.90;;;;;;5054364;28;20474;-66
2023/05/04 00:51:07;;;;;;;10.02;4.95;;;6.30;99.90;;;;;;5055663;28;20036;-66
2023/05/04 00:53:35;;;;;;;11.25;4.85;;;6.30;99.90;;;;;;5053935;28;20071;-66
2023/05/04 00:56:02;;;;;;;9.25;4.72;;;6.20;99.90;;;;;;5055302;28;20425;-65
2023/05/04 00:58:28;;;;;;;14.00;5.28;;;6.20;99.90;;;;;;5054972;28;20477;-66
2023/05/04 01:00:54;;;;;;;8.32;4.75;;;6.20;99.90;;;;;;5055384;28;20041;-66
2023/05/04 01:03:20;;;;;;;12.77;5.20;;;6.30;99.90;;;;;;5053123;28;20044;-65
2023/05/04 01:06:08;;;;;;;10.25;5.40;;;6.20;99.90;;;;;;5054160;28;20470;-66
2023/05/04 01:08:39;;;;;;;10.02;5.25;;;6.20;99.90;;;;;;5052730;28;20044;-66
2023/05/04 01:11:20;;;;;;;10.65;4.90;;;6.20;99.90;;;;;;5055091;28;20049;-66
2023/05/04 01:13:46;;;;;;;9.73;5.25;;;6.20;99.90;;;;;;5053968;28;20573;-66
2023/05/04 01:16:13;;;;;;;13.27;5.47;;;6.20;99.90;;;;;;5053139;28;20517;-66
2023/05/04 01:18:38;;;;;;;8.52;4.80;;;6.20;99.90;;;;;;5036790;28;20045;-66
2023/05/04 01:21:04;;;;;;;8.15;4.60;;;6.10;99.90;;;;;;5054018;28;20044;-66
2023/05/04 01:23:30;;;;;;;11.32;6.72;;;6.20;99.90;;;;;;5053793;28;20389;-66
2023/05/04 01:26:38;;;;;;;11.30;4.80;;;6.10;99.90;;;;;;5055140;28;20167;-66
2023/05/04 01:29:21;;;;;;;11.50;4.93;;;6.10;99.90;;;;;;5054870;28;20037;-66
2023/05/04 01:31:48;;;;;;;9.70;5.10;;;6.10;99.90;;;;;;5053767;28;20120;-66
2023/05/04 01:34:16;;;;;;;11.05;5.28;;;6.10;99.90;;;;;;5054794;28;20052;-66
2023/05/04 01:36:43;;;;;;;12.93;5.70;;;6.10;99.90;;;;;;5069362;28;20045;-66
2023/05/04 01:39:09;;;;;;;12.57;4.97;;;6.10;99.90;;;;;;5053546;28;20067;-66
2023/05/04 01:41:35;;;;;;;10.18;5.35;;;6.10;99.90;;;;;;5069658;28;20045;-66
2023/05/04 01:44:02;;;;;;;9.95;5.13;;;6.10;99.90;;;;;;5052747;28;20037;-66
2023/05/04 01:46:28;;;;;;;11.18;5.43;;;6.10;99.90;;;;;;5053186;28;20048;-66
2023/05/04 01:48:54;;;;;;;9.70;5.30;;;6.10;99.90;;;;;;5054566;28;20486;-66
2023/05/04 01:51:20;;;;;;;11.02;5.07;;;6.10;99.90;;;;;;5035600;28;20094;-66
2023/05/04 01:53:45;;;;;;;11.10;5.55;;;6.10;99.90;;;;;;5036671;28;20043;-66
2023/05/04 01:56:11;;;;;;;11.52;5.90;;;6.10;99.90;;;;;;5036673;28;20048;-66
2023/05/04 01:58:37;;;;;;;11.57;4.93;;;6.10;99.90;;;;;;5051437;28;20045;-66
2023/05/04 02:01:02;;;;;;;10.50;5.45;;;6.00;99.90;;;;;;5053205;28;20047;-66
2023/05/04 02:03:28;;;;;;;12.77;5.15;;;6.00;99.90;;;;;;5069277;28;20033;-66
2023/05/04 02:05:54;;;;;;;9.30;4.40;;;6.00;99.90;;;;;;5035687;28;20045;-66
2023/05/04 02:08:20;;;;;;;11.70;4.60;;;6.00;99.90;;;;;;5052947;28;20398;-66
2023/05/04 02:10:46;;;;;;;12.82;5.75;;;6.00;99.90;;;;;;5069562;28;20414;-66
2023/05/04 02:13:12;;;;;;;8.88;4.50;;;6.00;99.90;;;;;;5053607;28;20076;-65
2023/05/04 02:15:37;;;;;;;10.50;5.03;;;6.00;99.90;;;;;;5053545;28;20575;-66
2023/05/04 02:18:03;;;;;;;10.10;4.80;;;6.00;99.90;;;;;;5054045;28;20103;-66
2023/05/04 02:20:29;;;;;;;12.10;4.90;;;6.00;99.90;;;;;;5051458;28;20124;-66
2023/05/04 02:22:54;;;;;;;11.38;5.30;;;6.00;99.90;;;;;;5053060;28;20037;-66
2023/05/04 02:25:20;;;;;;;8.75;4.47;;;6.00;99.90;;;;;;5052072;28;20065;-66
2023/05/04 02:27:46;;;;;;;10.90;5.38;;;6.10;99.90;;;;;;5053378;28;20060;-65
2023/05/04 02:30:12;;;;;;;10.20;5.28;;;6.10;99.90;;;;;;5052659;28;20064;-66
2023/05/04 02:32:38;;;;;;;11.10;5.05;;;6.00;99.90;;;;;;5034493;28;20040;-66
2023/05/04 02:35:03;;;;;;;10.32;5.05;;;6.00;99.90;;;;;;5035874;28;20401;-66
2023/05/04 02:37:29;;;;;;;10.95;5.57;;;6.00;99.90;;;;;;5052185;28;20117;-66
2023/05/04 02:39:55;;;;;;;10.40;5.80;;;6.00;99.90;;;;;;5051544;28;20072;-65
2023/05/04 02:42:20;;;;;;;9.77;5.35;;;6.00;99.90;;;;;;5051715;28;20037;-66
2023/05/04 02:44:46;;;;;;;9.13;4.47;;;6.00;99.90;;;;;;5052351;28;20445;-66
2023/05/04 02:47:15;;;;;;;8.40;4.72;;;6.00;99.90;;;;;;5068105;28;20394;-66
2023/05/04 02:49:40;;;;;;;11.85;5.05;;;6.00;99.90;;;;;;5052183;28;20045;-66
2023/05/04 02:52:06;;;;;;;9.48;4.63;;;6.00;99.90;;;;;;5052237;28;20437;-66
2023/05/04 02:54:32;;;;;;;10.88;5.20;;;6.00;99.90;;;;;;5050581;28;20048;-66
2023/05/04 02:56:58;;;;;;;9.93;4.90;;;6.00;99.90;;;;;;5053504;28;20106;-66
2023/05/04 02:59:23;;;;;;;17.00;5.45;;;6.00;99.90;;;;;;5052617;28;20486;-66
2023/05/04 03:01:49;;;;;;;8.98;5.22;;;6.00;99.90;;;;;;5050751;28;20120;-66
2023/05/04 03:04:15;;;;;;;9.85;5.40;;;6.00;99.90;;;;;;5052052;28;20041;-66
2023/05/04 03:06:41;;;;;;;10.70;5.47;;;6.00;99.90;;;;;;5051556;28;20044;-66
2023/05/04 03:09:07;;;;;;;11.20;5.28;;;6.00;99.90;;;;;;5052441;28;20116;-66
2023/05/04 03:11:33;;;;;;;14.02;5.15;;;6.00;99.90;;;;;;5052434;28;20135;-66
2023/05/04 03:13:58;;;;;;;11.13;4.75;;;6.00;99.90;;;;;;5051818;28;20450;-66
2023/05/04 03:16:24;;;;;;;11.35;5.65;;;6.00;99.90;;;;;;5050250;28;20040;-66
2023/05/04 03:18:50;;;;;;;11.38;5.45;;;6.00;99.90;;;;;;5053222;28;20094;-66
2023/05/04 03:21:15;;;;;;;10.10;5.20;;;6.00;99.90;;;;;;5051329;28;20037;-66
2023/05/04 03:23:41;;;;;;;10.60;5.63;;;6.00;99.90;;;;;;5051968;28;20108;-66
2023/05/04 03:26:07;;;;;;;8.82;4.80;;;6.00;99.90;;;;;;5051705;28;20036;-66
2023/05/04 03:28:32;;;;;;;12.25;5.47;;;6.10;99.90;;;;;;5067586;28;20048;-66
2023/05/04 03:30:58;;;;;;;10.80;4.90;;;6.10;99.90;;;;;;5051873;28;20401;-66
2023/05/04 03:33:23;;;;;;;10.48;5.85;;;6.10;99.90;;;;;;5051202;28;20425;-66
2023/05/04 03:35:54;;;;;;;12.50;5.30;;;6.10;99.90;;;;;;5050770;28;20391;-66
2023/05/04 03:38:20;;;;;;;9.45;5.55;;;6.10;99.90;;;;;;5052118;28;20516;-66
2023/05/04 03:40:46;;;;;;;12.50;5.63;;;6.10;99.90;;;;;;5051450;28;20116;-66
2023/05/04 03:43:11;;;;;;;12.18;6.70;;;6.20;99.90;;;;;;5050299;28;20378;-66
2023/05/04 03:45:38;;;;;;;11.02;5.63;;;6.20;99.90;;;;;;5050679;28;20039;-66
2023/05/04 03:48:04;;;;;;;12.32;5.38;;;6.20;99.90;;;;;;5051085;28;20044;-66
2023/05/04 03:50:30;;;;;;;10.50;5.70;;;6.20;99.90;;;;;;5049838;28;20041;-66
2023/05/04 03:52:56;;;;;;;12.68;5.10;;;6.20;99.90;;;;;;5034863;28;20389;-66
2023/05/04 03:55:22;;;;;;;11.65;5.72;;;6.20;99.90;;;;;;5050691;28;20043;-66
2023/05/04 03:57:47;;;;;;;11.38;6.13;;;6.20;99.90;;;;;;5050347;28;20041;-66
2023/05/04 04:00:14;;;;;;;10.95;5.50;;;6.20;99.90;;;;;;5051992;28;20037;-66
2023/05/04 04:02:40;;;;;;;11.23;6.22;;;6.20;99.90;;;;;;5067232;28;20045;-66
2023/05/04 04:05:06;;;;;;;9.02;5.32;;;6.20;99.90;;;;;;5033600;28;20036;-66
2023/05/04 04:07:32;;;;;;;13.35;6.82;;;6.20;99.90;;;;;;5050658;28;20064;-66
2023/05/04 04:09:57;;;;;;;11.73;5.80;;;6.20;99.90;;;;;;5050762;28;20029;-66
2023/05/04 04:12:23;;;;;;;14.65;6.55;;;6.20;99.90;;;;;;5049287;28;20439;-66
2023/05/04 04:14:51;;;;;;;11.52;6.20;;;6.20;99.90;;;;;;5050043;28;20045;-66
2023/05/04 04:17:17;;;;;;;12.60;6.18;;;6.20;99.90;;;;;;5050223;28;20052;-66
2023/05/04 04:19:43;;;;;;;13.88;6.28;;;6.20;99.90;;;;;;5049978;28;20521;-66
2023/05/04 04:22:08;;;;;;;10.50;5.95;;;6.20;99.90;;;;;;5034117;28;20124;-66
2023/05/04 04:24:34;;;;;;;13.30;6.78;;;6.20;99.90;;;;;;5050155;28;20175;-66
2023/05/04 04:27:05;;;;;;;10.40;5.82;;;6.20;99.90;;;;;;5033441;28;20037;-66
2023/05/04 04:29:34;;;;;;;14.98;6.55;;;6.20;99.90;;;;;;5051080;28;20037;-66
2023/05/04 04:32:00;;;;;;;12.15;6.40;;;6.30;99.90;;;;;;5051732;28;20452;-66
2023/05/04 04:34:26;;;;;;;12.77;6.32;;;6.20;99.90;;;;;;5050044;28;20074;-66
2023/05/04 04:36:51;;;;;;;14.18;6.40;;;6.30;99.90;;;;;;5052082;28;20124;-66
2023/05/04 04:39:17;;;;;;;13.98;5.75;;;6.30;99.90;;;;;;5049264;28;20041;-66
2023/05/04 04:41:43;;;;;;;10.80;6.03;;;6.30;99.90;;;;;;5049368;28;20091;-66
2023/05/04 04:44:08;;;;;;;15.35;6.90;;;6.30;99.90;;;;;;5051081;28;20047;-66
2023/05/04 04:46:34;;;;;;;18.38;8.60;;;6.30;99.90;;;;;;5049360;28;20047;-66
2023/05/04 04:49:00;;;;;;;14.18;7.25;;;6.40;99.90;;;;;;5033914;28;20405;-66
2023/05/04 04:51:25;;;;;;;11.98;7.22;;;6.40;99.90;;;;;;5050145;28;20416;-66
2023/05/04 04:53:51;;;;;;;14.23;6.80;;;6.40;99.90;;;;;;5058279;28;20037;-66
2023/05/04 04:56:17;;;;;;;13.10;6.80;;;6.50;99.90;;;;;;5033483;28;20128;-66
2023/05/04 04:58:43;;;;;;;12.32;6.00;;;6.50;99.90;;;;;;5050015;28;20043;-66
2023/05/04 05:01:09;;;;;;;14.18;7.05;;;6.60;99.90;;;;;;5051058;28;20041;-66
2023/05/04 05:03:35;;;;;;;12.73;6.85;;;6.60;99.90;;;;;;5049925;28;20044;-66
2023/05/04 05:06:01;;;;;;;13.10;7.25;;;6.60;99.90;;;;;;5051507;28;20060;-66
2023/05/04 05:08:27;;;;;;;14.05;7.63;;;6.60;99.90;;;;;;5048824;28;20041;-66
2023/05/04 05:10:52;;;;;;;12.85;7.82;;;6.70;99.90;;;;;;5051290;28;20060;-66
2023/05/04 05:13:18;;;;;;;17.10;8.55;;;6.70;99.90;;;;;;5051036;28;20465;-66
2023/05/04 05:15:44;;;;;;;13.77;7.55;;;6.80;99.90;;;;;;5049407;28;20036;-66
2023/05/04 05:18:10;;;;;;;12.63;6.43;;;6.80;99.90;;;;;;5050544;28;20391;-66
2023/05/04 05:20:35;;;;;;;14.30;6.90;;;6.80;99.90;;;;;;5051243;28;20049;-66
2023/05/04 05:23:01;;;;;;;13.88;6.40;;;6.90;99.90;;;;;;5049637;28;20574;-66
2023/05/04 05:25:27;;;;;;;14.30;6.07;;;6.90;99.90;;;;;;5053023;28;20045;-66
2023/05/04 05:27:52;;;;;;;13.60;7.53;;;6.90;99.90;;;;;;5055135;28;20033;-66
2023/05/04 05:30:18;;;;;;;12.38;8.13;;;7.00;99.90;;;;;;5036205;28;20398;-66
2023/05/04 05:32:45;;;;;;;14.70;8.10;;;7.00;99.90;;;;;;5036683;28;20417;-66
2023/05/04 05:35:11;;;;;;;11.20;6.28;;;7.00;99.90;;;;;;5070411;28;20060;-66
2023/05/04 05:37:36;;;;;;;15.45;7.50;;;7.10;99.90;;;;;;5053756;28;20110;-66
2023/05/04 05:40:06;;;;;;;13.90;7.10;;;7.10;99.90;;;;;;5054756;28;20069;-66
2023/05/04 05:42:32;;;;;;;12.02;6.47;;;7.20;99.90;;;;;;5052134;28;20076;-66
2023/05/04 05:44:58;;;;;;;13.35;6.93;;;7.30;99.90;;;;;;5053843;28;20146;-66
2023/05/04 05:47:23;;;;;;;8.73;4.97;;;7.30;99.90;;;;;;5054248;28;20112;-66
2023/05/04 05:49:49;;;;;;;12.60;6.22;;;7.40;99.90;;;;;;5052647;28;20068;-66
2023/05/04 05:52:15;;;;;;;10.13;5.45;;;7.40;99.90;;;;;;5053163;28;20041;-66
2023/05/04 05:54:41;;;;;;;12.05;5.72;;;7.50;99.90;;;;;;5036358;28;20127;-66
2023/05/04 05:57:06;;;;;;;11.07;5.45;;;7.60;99.90;;;;;;5053703;28;20036;-66
2023/05/04 05:59:32;;;;;;;14.35;7.50;;;7.70;99.90;;;;;;5052552;28;20041;-66
2023/05/04 06:01:58;;;;;;;14.20;6.30;;;7.70;99.90;;;;;;5054566;28;20045;-66
2023/05/04 06:04:24;;;;;;;12.98;7.22;;;7.80;99.90;;;;;;5053103;28;20037;-66
2023/05/04 06:06:50;;;;;;;25.25;13.18;;;7.80;99.90;;;;;;5054357;28;20541;-66
2023/05/04 06:09:15;;;;;;;23.15;14.13;;;7.90;99.90;;;;;;5052619;28;20474;-66
2023/05/04 06:11:41;;;;;;;15.02;7.20;;;8.00;99.90;;;;;;5051907;28;20053;-66
2023/05/04 06:14:07;;;;;;;14.13;5.93;;;8.00;99.90;;;;;;5053023;28;20052;-66
2023/05/04 06:16:33;;;;;;;11.50;5.65;;;8.10;99.90;;;;;;5053547;28;20401;-66
2023/05/04 06:18:58;;;;;;;10.85;5.82;;;8.20;99.90;;;;;;5068745;28;20040;-66
2023/05/04 06:21:24;;;;;;;10.48;4.97;;;8.20;99.90;;;;;;5068932;28;20045;-66
2023/05/04 06:23:50;;;;;;;12.07;6.25;;;8.30;99.90;;;;;;5052763;28;20085;-66
2023/05/04 06:26:16;;;;;;;10.68;4.93;;;8.20;99.90;;;;;;5068180;28;21007;-66
2023/05/04 06:28:41;;;;;;;13.90;6.90;;;8.30;99.90;;;;;;5052380;28;20482;-66
2023/05/04 06:31:07;;;;;;;15.73;8.95;;;8.30;99.90;;;;;;5053032;28;20095;-66
2023/05/04 06:33:33;;;;;;;15.10;7.60;;;8.40;99.90;;;;;;5034576;28;20045;-66
2023/05/04 06:35:59;;;;;;;12.55;7.65;;;8.40;99.90;;;;;;5035257;28;20037;-66
2023/05/04 06:38:24;;;;;;;23.08;13.70;;;8.40;99.90;;;;;;5051991;28;20037;-66
2023/05/04 06:40:50;;;;;;;19.65;10.25;;;8.50;99.90;;;;;;5051701;28;20444;-66
2023/05/04 06:43:16;;;;;;;20.60;10.77;;;8.50;99.90;;;;;;5052120;28;20475;-66
2023/05/04 06:45:42;;;;;;;21.20;10.98;;;8.50;99.90;;;;;;5051496;28;20403;-66
2023/05/04 06:48:07;;;;;;;11.63;7.05;;;8.60;99.90;;;;;;5053780;28;20029;-66
2023/05/04 06:50:42;;;;;;;12.60;6.78;;;8.70;99.90;;;;;;5052010;28;20041;-66
2023/05/04 06:53:10;;;;;;;13.93;7.30;;;8.80;99.90;;;;;;5051439;28;20056;-66
2023/05/04 06:55:36;;;;;;;8.38;5.20;;;9.00;99.90;;;;;;5052657;28;20044;-66
2023/05/04 06:58:03;;;;;;;17.23;5.57;;;9.10;99.90;;;;;;5035557;28;20041;-66
2023/05/04 07:00:30;;;;;;;10.20;5.22;;;9.20;99.90;;;;;;5050848;28;20446;-66
2023/05/04 07:02:56;;;;;;;12.38;6.05;;;9.30;99.90;;;;;;5035692;28;20047;-66
2023/05/04 07:05:22;;;;;;;12.20;5.88;;;9.30;99.90;;;;;;5052679;28;20041;-66
2023/05/04 07:07:48;;;;;;;13.25;6.03;;;9.30;99.90;;;;;;5034409;28;20068;-66
2023/05/04 07:10:14;;;;;;;12.90;6.15;;;9.40;99.90;;;;;;5051806;28;20052;-66
2023/05/04 07:12:40;;;;;;;10.95;5.70;;;9.40;99.90;;;;;;5051726;28;20045;-66
2023/05/04 07:15:07;;;;;;;12.07;6.25;;;9.50;99.90;;;;;;5052506;28;20048;-66
2023/05/04 07:17:34;;;;;;;11.95;5.85;;;9.50;99.90;;;;;;5051171;28;20485;-66
2023/05/04 07:20:04;;;;;;;11.50;5.72;;;9.60;99.90;;;;;;5051753;28;20037;-66
2023/05/04 07:22:30;;;;;;;12.15;5.18;;;9.70;99.90;;;;;;5049896;28;20045;-66
2023/05/04 07:25:00;;;;;;;11.48;5.25;;;9.60;99.90;;;;;;5051669;28;20041;-64
2023/05/04 07:27:26;;;;;;;12.88;5.13;;;9.60;99.90;;;;;;5067753;28;20037;-65
2023/05/04 07:29:51;;;;;;;9.18;5.10;;;9.60;99.90;;;;;;5049468;28;20041;-67
2023/05/04 07:32:18;;;;;;;12.75;5.50;;;9.70;99.90;;;;;;5046541;28;20048;-64
2023/05/04 07:34:44;;;;;;;11.98;6.72;;;9.70;99.90;;;;;;5045871;28;20151;-66
2023/05/04 07:37:10;;;;;;;9.63;5.45;;;9.80;99.90;;;;;;5050741;28;20036;-66
2023/05/04 07:39:37;;;;;;;12.13;5.57;;;9.90;99.90;;;;;;5051544;28;20464;-66
2023/05/04 07:42:03;;;;;;;10.38;5.47;;;10.00;99.90;;;;;;5048081;28;20048;-66
2023/05/04 07:44:32;;;;;;;10.10;5.55;;;10.10;99.90;;;;;;5050806;28;20041;-66
2023/05/04 07:46:58;;;;;;;12.13;5.60;;;10.10;99.90;;;;;;5051132;28;20414;-66
2023/05/04 07:49:24;;;;;;;12.27;5.25;;;10.20;99.90;;;;;;5049735;28;20041;-67
2023/05/04 07:51:50;;;;;;;11.55;6.03;;;10.30;99.90;;;;;;5034467;28;20055;-66
2023/05/04 07:54:16;;;;;;;9.80;5.22;;;10.40;99.90;;;;;;5052176;28;20119;-67
2023/05/04 07:56:41;;;;;;;12.52;6.50;;;10.60;99.90;;;;;;5050006;28;20175;-66
2023/05/04 07:59:07;;;;;;;15.13;5.93;;;10.70;99.90;;;;;;5050719;28;20518;-67
2023/05/04 08:01:33;;;;;;;11.30;5.75;;;10.80;99.90;;;;;;5046377;28;20124;-67
2023/05/04 08:03:59;;;;;;;10.40;5.85;;;10.80;99.90;;;;;;5047607;28;20048;-67
2023/05/04 08:06:24;;;;;;;10.75;5.65;;;10.80;99.90;;;;;;5048832;28;20119;-66
2023/05/04 08:08:50;;;;;;;11.15;5.53;;;10.90;99.90;;;;;;5047946;28;20544;-67
2023/05/04 08:11:16;;;;;;;13.40;6.40;;;11.00;99.90;;;;;;5047251;28;20465;-66
2023/05/04 08:13:46;;;;;;;13.75;6.43;;;11.00;99.90;;;;;;5063986;28;20048;-66
2023/05/04 08:16:12;;;;;;;10.10;5.38;;;11.00;99.90;;;;;;5049379;28;20076;-67
2023/05/04 08:18:38;;;;;;;12.02;5.80;;;11.10;99.90;;;;;;5048184;28;20077;-66
2023/05/04 08:21:04;;;;;;;12.05;6.05;;;11.20;99.90;;;;;;5048025;28;20045;-66
2023/05/04 08:23:33;;;;;;;14.57;5.60;;;11.30;99.90;;;;;;5047126;28;20045;-67
2023/05/04 08:26:03;;;;;;;12.00;5.57;;;11.40;99.90;;;;;;5047732;28;20409;-67
2023/05/04 08:28:29;;;;;;;10.52;6.40;;;11.50;99.90;;;;;;5048291;28;20044;-65
2023/05/04 08:30:56;;;;;;;12.35;6.63;;;11.50;99.90;;;;;;5047856;28;20040;-67
2023/05/04 08:33:22;;;;;;;13.50;5.88;;;11.60;99.90;;;;;;5046764;28;20048;-70
2023/05/04 08:35:48;;;;;;;11.68;5.65;;;11.70;99.90;;;;;;5050045;28;20064;-71
2023/05/04 08:38:14;;;;;;;8.95;5.03;;;11.80;99.90;;;;;;5049924;28;20120;-65
2023/05/04 08:40:41;;;;;;;10.52;5.75;;;11.80;99.90;;;;;;5049667;28;20136;-64
2023/05/04 08:43:07;;;;;;;13.63;5.40;;;11.80;99.90;;;;;;5051380;28;20112;-70
2023/05/04 08:45:38;;;;;;;10.48;6.15;;;11.90;99.90;;;;;;5049092;28;20125;-68
2023/05/04 08:48:05;;;;;;;11.40;5.40;;;11.90;99.90;;;;;;5034824;28;20041;-65
2023/05/04 08:50:33;;;;;;;11.55;5.43;;;11.90;99.90;;;;;;5050048;28;20040;-66
2023/05/04 08:53:02;;;;;;;11.00;5.90;;;12.00;99.90;;;;;;5050110;28;20512;-67
2023/05/04 08:55:34;;;;;;;19.65;5.70;;;12.00;99.90;;;;;;5050950;28;20099;-65
2023/05/04 08:58:03;;;;;;;10.73;5.70;;;11.90;99.90;;;;;;5030616;28;20445;-66
2023/05/04 09:00:31;;;;;;;9.85;5.00;;;11.80;99.90;;;;;;5051361;28;20059;-64
2023/05/04 09:03:00;;;;;;;9.40;5.05;;;11.90;99.90;;;;;;5036978;28;20086;-64
2023/05/04 09:05:27;;;;;;;16.73;5.40;;;12.00;99.90;;;;;;5053500;28;20540;-66
2023/05/04 09:07:52;;;;;;;9.52;5.43;;;12.00;99.90;;;;;;5047855;28;20100;-68
2023/05/04 09:10:18;;;;;;;11.35;5.68;;;12.10;99.90;;;;;;5052449;28;20435;-68
2023/05/04 09:12:45;;;;;;;9.57;5.18;;;12.20;99.90;;;;;;5054019;28;20040;-66
2023/05/04 09:15:19;;;;;;;10.15;5.45;;;12.30;99.90;;;;;;5037111;28;20033;-66
2023/05/04 09:18:00;;;;;;;12.70;5.53;;;12.50;99.90;;;;;;5023076;28;20111;-67
2023/05/04 09:20:26;;;;;;;12.20;5.00;;;12.60;99.90;;;;;;5041095;28;20349;-65
2023/05/04 09:23:06;;;;;;;10.02;4.95;;;12.70;99.90;;;;;;5054168;28;20134;-64
2023/05/04 09:25:33;;;;;;;10.23;5.35;;;12.80;99.90;;;;;;5052275;28;20475;-66
2023/05/04 09:27:59;;;;;;;11.30;5.25;;;13.00;99.90;;;;;;5046896;28;20064;-64
2023/05/04 09:30:25;;;;;;;9.15;5.32;;;13.00;99.90;;;;;;5031044;28;20201;-65
2023/05/04 09:32:51;;;;;;;10.77;6.38;;;13.10;99.90;;;;;;5034224;28;20041;-63
2023/05/04 09:35:25;;;;;;;9.77;5.65;;;13.10;99.90;;;;;;5033385;28;20044;-66
2023/05/04 09:37:51;;;;;;;16.00;6.00;;;13.30;99.90;;;;;;5052694;28;20059;-64
2023/05/04 09:40:17;;;;;;;10.98;5.20;;;13.40;99.90;;;;;;5050432;28;20371;-65
2023/05/04 09:42:43;;;;;;;8.88;5.40;;;13.50;99.90;;;;;;5049954;28;20041;-63
2023/05/04 09:45:09;;;;;;;11.45;5.57;;;13.50;99.90;;;;;;5050649;28;20033;-65
2023/05/04 09:47:39;;;;;;;8.23;4.97;;;13.60;99.90;;;;;;5050388;28;20036;-65
2023/05/04 09:50:22;;;;;;;10.23;5.13;;;13.80;99.90;;;;;;5051575;28;20119;-65
2023/05/04 09:52:48;;;;;;;8.52;4.72;;;14.10;99.90;;;;;;5052018;28;20052;-66
2023/05/04 09:55:17;;;;;;;11.90;5.22;;;14.20;99.90;;;;;;5052246;28;20029;-64
2023/05/04 09:57:44;;;;;;;8.40;4.88;;;14.30;99.90;;;;;;5050158;28;20043;-63
2023/05/04 10:00:12;;;;;;;9.00;5.30;;;14.30;99.90;;;;;;5037828;28;20375;-64
2023/05/04 10:02:39;;;;;;;13.45;4.85;;;14.20;99.90;;;;;;5048005;28;20036;-64
2023/05/04 10:05:09;;;;;;;9.10;5.13;;;14.10;99.90;;;;;;5050624;28;20048;-65
2023/05/04 10:07:36;;;;;;;9.82;6.10;;;14.10;99.90;;;;;;5051312;28;20382;-64
2023/05/04 10:10:02;;;;;;;8.70;4.75;;;14.10;99.90;;;;;;5049760;28;20410;-66
2023/05/04 10:12:28;;;;;;;9.30;4.90;;;14.30;99.90;;;;;;5032391;28;20374;-63
2023/05/04 10:14:53;;;;;;;7.43;4.82;;;14.30;99.90;;;;;;5051520;28;20049;-64
2023/05/04 10:17:19;;;;;;;9.02;6.00;;;14.30;99.90;;;;;;5050624;28;20055;-64
2023/05/04 10:20:08;;;;;;;9.00;5.20;;;14.40;99.90;;;;;;5050730;28;20044;-64
2023/05/04 10:23:11;;;;;;;8.98;5.53;;;14.30;99.90;;;;;;5049931;28;20045;-65
2023/05/04 10:26:12;;;;;;;9.93;5.30;;;14.40;99.90;;;;;;5047717;28;20079;-65
2023/05/04 10:29:05;;;;;;;9.68;5.22;;;14.60;99.90;;;;;;5041700;28;20390;-64
2023/05/04 10:31:41;;;;;;;8.23;4.85;;;14.90;99.90;;;;;;5048544;28;20686;-65
2023/05/04 10:34:07;;;;;;;11.23;5.32;;;15.10;99.90;;;;;;5048799;28;20040;-64
2023/05/04 10:36:37;;;;;;;12.93;5.22;;;15.20;99.90;;;;;;5049378;28;20045;-64
2023/05/04 10:39:04;;;;;;;9.60;5.32;;;15.40;99.90;;;;;;5049456;28;20063;-64
2023/05/04 10:41:31;;;;;;;9.32;5.65;;;15.50;99.90;;;;;;5050928;28;20049;-64
2023/05/04 10:44:04;;;;;;;8.63;4.88;;;15.50;99.90;;;;;;5049891;28;20113;-64
2023/05/04 10:46:30;;;;;;;7.55;3.90;;;15.50;99.90;;;;;;5043805;28;20613;-65
2023/05/04 10:48:56;;;;;;;9.63;4.78;;;15.50;99.90;;;;;;5051841;28;20553;-64
2023/05/04 10:51:26;;;;;;;8.57;5.32;;;15.50;99.90;;;;;;5052846;28;20045;-65
2023/05/04 10:53:52;;;;;;;10.60;5.20;;;15.60;99.90;;;;;;5052806;28;20048;-65
2023/05/04 10:56:25;;;;;;;11.32;4.95;;;15.60;99.90;;;;;;5052126;28;20041;-65
2023/05/04 10:58:51;;;;;;;8.75;4.68;;;15.70;99.90;;;;;;5052626;28;20405;-65
2023/05/04 11:01:18;;;;;;;10.18;4.80;;;15.80;99.90;;;;;;5050968;28;20063;-65
2023/05/04 11:03:44;;;;;;;8.15;4.47;;;15.90;99.90;;;;;;5067923;28;20398;-63
2023/05/04 11:06:22;;;;;;;9.77;4.57;;;15.90;99.70;;;;;;5050274;28;20045;-66
2023/05/04 11:08:58;;;;;;;10.68;5.18;;;16.10;99.90;;;;;;5051991;28;20478;-66
2023/05/04 11:11:23;;;;;;;8.15;4.85;;;16.10;99.10;;;;;;5051026;28;20532;-65
2023/05/04 11:13:49;;;;;;;8.82;4.88;;;16.20;99.20;;;;;;5051162;28;20123;-66
2023/05/04 11:16:26;;;;;;;9.40;4.90;;;16.20;98.50;;;;;;5051785;28;20401;-65
2023/05/04 11:18:53;;;;;;;9.13;4.70;;;16.20;98.00;;;;;;5051777;28;20037;-65
2023/05/04 11:21:26;;;;;;;11.30;4.97;;;16.20;97.60;;;;;;5034088;28;20445;-66
2023/05/04 11:23:56;;;;;;;8.93;5.30;;;16.20;97.70;;;;;;5034931;28;20398;-67
2023/05/04 11:26:23;;;;;;;10.13;5.07;;;16.20;97.10;;;;;;5052468;28;20044;-67
2023/05/04 11:28:49;;;;;;;9.13;5.38;;;16.20;98.20;;;;;;5067358;28;20047;-67
2023/05/04 11:31:16;;;;;;;10.30;5.15;;;16.30;98.00;;;;;;5052642;28;20055;-67
2023/05/04 11:33:50;;;;;;;9.55;5.30;;;16.40;97.40;;;;;;5052452;28;20036;-67
2023/05/04 11:36:16;;;;;;;8.02;4.90;;;16.50;97.20;;;;;;5050314;28;20037;-67
2023/05/04 11:38:42;;;;;;;11.10;5.55;;;16.50;96.60;;;;;;5051189;28;20081;-67
2023/05/04 11:41:08;;;;;;;13.93;5.88;;;16.60;97.40;;;;;;5033858;28;20079;-66
2023/05/04 11:43:36;;;;;;;10.30;4.90;;;16.70;97.40;;;;;;5052061;28;20083;-66
2023/05/04 11:46:03;;;;;;;8.23;5.10;;;16.70;96.40;;;;;;5052653;28;20159;-66
2023/05/04 11:48:31;;;;;;;9.02;4.90;;;16.90;97.20;;;;;;5049943;28;20045;-66
2023/05/04 11:50:57;;;;;;;8.50;4.85;;;17.10;97.20;;;;;;5051207;28;20049;-66
2023/05/04 11:53:23;;;;;;;8.10;4.65;;;17.20;96.30;;;;;;5050702;28;20068;-66
2023/05/04 11:55:51;;;;;;;8.45;4.60;;;17.20;95.00;;;;;;5050328;28;20478;-66
2023/05/04 11:58:24;;;;;;;11.05;5.07;;;17.20;95.20;;;;;;5067466;28;20048;-66
2023/05/04 12:00:57;;;;;;;7.05;3.90;;;17.30;94.80;;;;;;5067772;28;20048;-66
2023/05/04 12:03:30;;;;;;;9.25;5.13;;;17.40;93.60;;;;;;5066567;28;20520;-67
2023/05/04 12:05:57;;;;;;;12.00;4.07;;;17.40;92.90;;;;;;5034729;28;20045;-66
2023/05/04 12:08:28;;;;;;;8.07;4.50;;;17.40;92.70;;;;;;5051804;28;20267;-66
2023/05/04 12:11:20;;;;;;;10.68;4.55;;;17.40;91.40;;;;;;5049971;28;20061;-66
2023/05/04 12:13:47;;;;;;;10.30;4.95;;;17.50;92.90;;;;;;5052235;28;20040;-66
2023/05/04 12:16:19;;;;;;;6.75;4.07;;;17.70;93.10;;;;;;5051175;28;20045;-67
2023/05/04 12:18:46;;;;;;;8.38;4.90;;;17.80;91.40;;;;;;5067745;28;20048;-66
2023/05/04 12:21:20;;;;;;;10.07;5.35;;;17.80;92.00;;;;;;5050747;28;20051;-66
2023/05/04 12:23:46;;;;;;;7.65;4.25;;;17.80;90.90;;;;;;5049925;28;20506;-66
2023/05/04 12:26:13;;;;;;;9.93;5.45;;;17.80;91.00;;;;;;5052004;28;20036;-66
2023/05/04 12:28:40;;;;;;;9.15;4.65;;;17.80;91.00;;;;;;5051266;28;20036;-66
2023/05/04 12:31:05;;;;;;;7.97;4.50;;;17.80;91.20;;;;;;5050040;28;20116;-66
2023/05/04 12:33:32;;;;;;;8.88;5.00;;;17.80;90.90;;;;;;5066825;28;20124;-66
2023/05/04 12:36:03;;;;;;;9.00;5.07;;;17.80;90.50;;;;;;5070231;28;20076;-69
2023/05/04 12:38:29;;;;;;;10.98;5.70;;;17.80;90.30;;;;;;5044283;28;20120;-64
2023/05/04 12:40:57;;;;;;;7.63;4.07;;;18.00;90.40;;;;;;5053929;28;20135;-65
2023/05/04 12:43:24;;;;;;;11.70;4.80;;;17.90;89.20;;;;;;5036717;28;20081;-64
2023/05/04 12:45:50;;;;;;;8.75;4.40;;;17.90;90.50;;;;;;5036520;28;20109;-64
2023/05/04 12:48:16;;;;;;;9.38;4.88;;;18.00;90.80;;;;;;5053654;28;20041;-65